Time;durP1;ratioP1;P1;durP2;ratioP2;P2;SDS_P1;SDS_P2;PMS_P1;PMS_P2;Temp;Humidity;BMP_temperature;BMP_pressure;BME280_temperature;BME280_humidity;BME280_pressure;Samples;Min_cycle;Max_cycle;Signal;HPM_P1;HPM_P2
2023/06/24 00:01:15;;;;;;;1999.90;999.90;;;;;;;;;;5011671;28;20236;-68
2023/06/24 00:04:01;;;;;;;1999.90;999.90;;;;;;;;;;5002495;28;20209;-72
2023/06/24 00:06:45;;;;;;;1999.90;999.90;;;;;;;;;;5007940;28;20692;-69
2023/06/24 00:09:31;;;;;;;1999.90;999.90;;;;;;;;;;5002461;28;20219;-72
2023/06/24 00:12:18;;;;;;;1999.90;999.90;;;;;;;;;;4995961;28;20239;-72
2023/06/24 00:15:04;;;;;;;1999.90;999.90;;;;;;;;;;5005143;28;20379;-72
2023/06/24 00:17:50;;;;;;;1999.90;999.90;;;;;;;;;;5005251;28;20799;-72
2023/06/24 00:20:35;;;;;;;1999.90;999.90;;;;;;;;;;5004908;28;20211;-72
2023/06/24 00:23:24;;;;;;;1999.90;999.90;;;;;;;;;;5004676;28;20208;-72
2023/06/24 00:26:09;;;;;;;1999.90;999.90;;;;;;;;;;5010519;28;20269;-72
2023/06/24 00:28:54;;;;;;;1999.90;999.90;;;;;;;;;;5005405;28;20208;-72
2023/06/24 00:31:38;;;;;;;1999.90;999.90;;;;;;;;;;5009224;28;20278;-73
2023/06/24 00:34:25;;;;;;;1999.90;999.90;;;;;;;;;;5004817;28;20697;-71
2023/06/24 00:37:09;;;;;;;1999.90;999.90;;;;;;;;;;5007198;28;20218;-72
2023/06/24 00:39:54;;;;;;;1999.90;999.90;;;;;;;;;;5009025;28;20215;-72
2023/06/24 00:42:39;;;;;;;1999.90;999.90;;;;;;;;;;5001386;28;20227;-72
2023/06/24 00:45:24;;;;;;;1999.90;999.90;;;;;;;;;;5011009;28;20205;-71
2023/06/24 00:48:09;;;;;;;1999.90;999.90;;;;;;;;;;5002586;28;20234;-73
2023/06/24 00:50:58;;;;;;;1999.90;999.90;;;;;;;;;;5006161;28;20742;-72
2023/06/24 00:53:43;;;;;;;1999.90;999.90;;;;;;;;;;5000442;28;20581;-70
2023/06/24 00:56:30;;;;;;;1999.90;999.90;;;;;;;;;;4996230;28;20825;-74
2023/06/24 00:59:16;;;;;;;1999.90;999.90;;;;;;;;;;5004862;28;20310;-72
2023/06/24 01:02:04;;;;;;;1999.90;999.90;;;;;;;;;;5003207;28;20238;-72
2023/06/24 01:04:51;;;;;;;1999.90;999.90;;;;;;;;;;4992779;28;20228;-70
2023/06/24 01:07:38;;;;;;;1999.90;999.90;;;;;;;;;;5001222;28;20416;-72
2023/06/24 01:10:24;;;;;;;1999.90;999.90;;;;;;;;;;4995284;28;20218;-72
2023/06/24 01:13:09;;;;;;;1999.90;999.90;;;;;;;;;;5004464;28;20288;-70
2023/06/24 01:15:54;;;;;;;1999.90;999.90;;;;;;;;;;5006647;28;20249;-72
2023/06/24 01:18:44;;;;;;;1999.90;999.90;;;;;;;;;;5006012;28;20691;-73
2023/06/24 01:21:34;;;;;;;1999.90;999.90;;;;;;;;;;5003973;28;20231;-72
2023/06/24 01:24:32;;;;;;;1999.90;999.90;;;;;;;;;;5010902;28;20210;-73
2023/06/24 01:27:37;;;;;;;1999.90;999.90;;;;;;;;;;5002837;28;20718;-71
2023/06/24 01:30:42;;;;;;;1999.90;999.90;;;;;;;;;;4980103;28;20211;-72
2023/06/24 01:33:33;;;;;;;1999.90;999.90;;;;;;;;;;5003715;28;20249;-72
2023/06/24 01:36:19;;;;;;;1999.90;999.90;;;;;;;;;;5004320;28;20234;-72
2023/06/24 01:39:06;;;;;;;1999.90;999.90;;;;;;;;;;5008627;28;20733;-72
2023/06/24 01:41:54;;;;;;;1999.90;999.90;;;;;;;;;;5000681;28;20239;-72
2023/06/24 01:44:41;;;;;;;1999.90;999.90;;;;;;;;;;4991035;28;20449;-72
2023/06/24 01:47:27;;;;;;;1999.90;999.90;;;;;;;;;;5003215;28;20636;-72
2023/06/24 01:50:14;;;;;;;1999.90;999.90;;;;;;;;;;5003807;28;20211;-72
2023/06/24 01:53:01;;;;;;;1999.90;999.90;;;;;;;;;;5004054;28;20253;-72
2023/06/24 01:55:47;;;;;;;1999.90;999.90;;;;;;;;;;5005506;28;20231;-72
2023/06/24 01:58:33;;;;;;;1999.90;999.90;;;;;;;;;;5004286;28;20261;-72
2023/06/24 02:01:18;;;;;;;1999.90;999.90;;;;;;;;;;5002214;28;20243;-72
2023/06/24 02:04:04;;;;;;;1999.90;999.90;;;;;;;;;;5007881;28;20398;-73
2023/06/24 02:06:53;;;;;;;1999.90;999.90;;;;;;;;;;5006613;28;20616;-72
2023/06/24 02:09:39;;;;;;;1999.90;999.90;;;;;;;;;;4998330;28;20766;-72
2023/06/24 02:12:25;;;;;;;1999.90;999.90;;;;;;;;;;5006948;28;20597;-73
2023/06/24 02:15:11;;;;;;;1999.90;999.90;;;;;;;;;;5006199;28;20230;-72
2023/06/24 02:17:57;;;;;;;1999.90;999.90;;;;;;;;;;5013660;28;20306;-72
2023/06/24 02:20:43;;;;;;;1999.90;999.90;;;;;;;;;;5000759;28;20372;-72
2023/06/24 02:23:30;;;;;;;1999.90;999.90;;;;;;;;;;5005351;28;20211;-72
2023/06/24 02:26:16;;;;;;;1999.90;999.90;;;;;;;;;;5002264;28;20557;-70
2023/06/24 02:29:01;;;;;;;1999.90;999.90;;;;;;;;;;5006742;28;20590;-71
2023/06/24 02:31:46;;;;;;;1999.90;999.90;;;;;;;;;;4997993;28;20722;-71
2023/06/24 02:34:31;;;;;;;1999.90;999.90;;;;;;;;;;4998693;28;20211;-71
2023/06/24 02:37:16;;;;;;;1999.90;999.90;;;;;;;;;;4997495;28;20405;-71
2023/06/24 02:40:04;;;;;;;1999.90;999.90;;;;;;;;;;5005047;28;20219;-72
2023/06/24 02:42:49;;;;;;;1999.90;999.90;;;;;;;;;;5006458;28;20227;-70
2023/06/24 02:45:34;;;;;;;1999.90;999.90;;;;;;;;;;5001306;28;20688;-72
2023/06/24 02:48:20;;;;;;;1999.90;999.90;;;;;;;;;;5004584;28;20587;-71
2023/06/24 02:51:05;;;;;;;1999.90;999.90;;;;;;;;;;5002182;28;20227;-72
2023/06/24 02:53:51;;;;;;;1999.90;999.90;;;;;;;;;;5005561;28;20353;-71
2023/06/24 02:56:41;;;;;;;1999.90;999.90;;;;;;;;;;5006057;28;20231;-72
2023/06/24 02:59:26;;;;;;;1999.90;999.90;;;;;;;;;;5007051;28;20710;-71
2023/06/24 03:02:11;;;;;;;1999.90;999.90;;;;;;;;;;5007302;28;20243;-69
2023/06/24 03:04:57;;;;;;;1999.90;999.90;;;;;;;;;;5003625;28;20210;-71
2023/06/24 03:07:42;;;;;;;1999.90;999.90;;;;;;;;;;5002719;28;20206;-71
2023/06/24 03:10:27;;;;;;;1999.90;999.90;;;;;;;;;;5009830;28;20270;-72
2023/06/24 03:13:13;;;;;;;1999.90;999.90;;;;;;;;;;5011855;28;20238;-69
2023/06/24 03:15:58;;;;;;;1999.90;999.90;;;;;;;;;;4998555;28;20223;-71
2023/06/24 03:18:43;;;;;;;1999.90;999.90;;;;;;;;;;4998639;28;20763;-73
2023/06/24 03:21:29;;;;;;;1999.90;999.90;;;;;;;;;;4999873;28;20754;-71
2023/06/24 03:24:14;;;;;;;1999.90;999.90;;;;;;;;;;5002487;28;20215;-71
2023/06/24 03:26:59;;;;;;;1999.90;999.90;;;;;;;;;;4999134;28;20719;-72
2023/06/24 03:29:45;;;;;;;1999.90;999.90;;;;;;;;;;5002380;28;20206;-71
2023/06/24 03:32:30;;;;;;;1999.90;999.90;;;;;;;;;;5002721;28;20239;-71
2023/06/24 03:35:15;;;;;;;1999.90;999.90;;;;;;;;;;5003024;28;20301;-69
2023/06/24 03:38:00;;;;;;;1999.90;999.90;;;;;;;;;;5003049;28;20298;-71
2023/06/24 03:40:45;;;;;;;1999.90;999.90;;;;;;;;;;4994571;28;20700;-71
2023/06/24 03:43:30;;;;;;;1999.90;999.90;;;;;;;;;;4994031;28;20211;-71
2023/06/24 03:46:16;;;;;;;1999.90;999.90;;;;;;;;;;5003800;28;21305;-71
2023/06/24 03:49:01;;;;;;;1999.90;999.90;;;;;;;;;;5009004;28;20262;-71
2023/06/24 03:51:46;;;;;;;1999.90;999.90;;;;;;;;;;5002003;28;20234;-70
2023/06/24 03:54:31;;;;;;;1999.90;999.90;;;;;;;;;;4997555;28;20210;-70
2023/06/24 03:57:16;;;;;;;1999.90;999.90;;;;;;;;;;4999007;28;20616;-70
2023/06/24 04:00:00;;;;;;;1999.90;999.90;;;;;;;;;;5000961;28;20778;-72
2023/06/24 04:02:47;;;;;;;1999.90;999.90;;;;;;;;;;5001685;28;20245;-67
2023/06/24 04:05:32;;;;;;;1999.90;999.90;;;;;;;;;;5000290;28;20253;-71
2023/06/24 04:08:17;;;;;;;1999.90;999.90;;;;;;;;;;5003499;28;20284;-72
2023/06/24 04:11:03;;;;;;;1999.90;999.90;;;;;;;;;;4993419;28;20242;-71
2023/06/24 04:13:48;;;;;;;1999.90;999.90;;;;;;;;;;5000356;28;20274;-71
2023/06/24 04:16:33;;;;;;;1999.90;999.90;;;;;;;;;;4999662;28;20734;-69
2023/06/24 04:19:20;;;;;;;1999.90;999.90;;;;;;;;;;4994516;28;20215;-70
2023/06/24 04:22:05;;;;;;;1999.90;999.90;;;;;;;;;;4998035;28;20374;-69
2023/06/24 04:24:50;;;;;;;1999.90;999.90;;;;;;;;;;4994241;28;20226;-71
2023/06/24 04:27:35;;;;;;;1999.90;999.90;;;;;;;;;;4992767;28;20223;-71
2023/06/24 04:30:20;;;;;;;1999.90;999.90;;;;;;;;;;4993746;28;20219;-69
2023/06/24 04:33:05;;;;;;;1999.90;999.90;;;;;;;;;;4993698;28;20590;-72
2023/06/24 04:35:52;;;;;;;1999.90;999.90;;;;;;;;;;5001584;28;20288;-69
2023/06/24 04:38:37;;;;;;;1999.90;999.90;;;;;;;;;;4993716;28;20219;-70
2023/06/24 04:41:22;;;;;;;1999.90;999.90;;;;;;;;;;5000128;28;20788;-69
2023/06/24 04:44:07;;;;;;;1999.90;999.90;;;;;;;;;;4992858;28;20269;-70
2023/06/24 04:46:52;;;;;;;1999.90;999.90;;;;;;;;;;5001807;28;20675;-72
2023/06/24 04:49:37;;;;;;;1999.90;999.90;;;;;;;;;;4993328;28;20204;-72
2023/06/24 04:52:25;;;;;;;1999.90;999.90;;;;;;;;;;5001120;28;20245;-71
2023/06/24 04:55:10;;;;;;;1999.90;999.90;;;;;;;;;;4993277;28;20237;-71
2023/06/24 04:57:55;;;;;;;1999.90;999.90;;;;;;;;;;4997702;28;20417;-72
2023/06/24 05:00:39;;;;;;;1999.90;999.90;;;;;;;;;;4997923;28;20582;-71
2023/06/24 05:03:25;;;;;;;1999.90;999.90;;;;;;;;;;5006498;28;20738;-70
2023/06/24 05:06:09;;;;;;;1999.90;999.90;;;;;;;;;;4999930;28;20207;-70
2023/06/24 05:08:56;;;;;;;1999.90;999.90;;;;;;;;;;4997154;28;20747;-70
2023/06/24 05:11:41;;;;;;;1999.90;999.90;;;;;;;;;;4998836;28;20823;-70
2023/06/24 05:14:26;;;;;;;1999.90;999.90;;;;;;;;;;4998516;28;20418;-71
2023/06/24 05:17:11;;;;;;;1999.90;999.90;;;;;;;;;;5003893;28;20283;-72
2023/06/24 05:19:56;;;;;;;1999.90;999.90;;;;;;;;;;4993660;28;20286;-72
2023/06/24 05:22:41;;;;;;;1999.90;999.90;;;;;;;;;;5000055;28;20246;-72
2023/06/24 05:25:27;;;;;;;1999.90;999.90;;;;;;;;;;4998618;28;20224;-72
2023/06/24 05:28:12;;;;;;;1999.90;999.90;;;;;;;;;;4997693;28;20203;-72
2023/06/24 05:30:57;;;;;;;1999.90;999.90;;;;;;;;;;4998141;28;20238;-71
2023/06/24 05:33:42;;;;;;;1999.90;999.90;;;;;;;;;;4999476;28;20445;-71
2023/06/24 05:36:27;;;;;;;1999.90;999.90;;;;;;;;;;4995398;28;20224;-70
2023/06/24 05:39:12;;;;;;;1999.90;999.90;;;;;;;;;;4995867;28;20251;-71
2023/06/24 05:41:58;;;;;;;1999.90;999.90;;;;;;;;;;4999681;28;20886;-72
2023/06/24 05:44:43;;;;;;;1999.90;999.90;;;;;;;;;;4991992;28;20214;-71
2023/06/24 05:47:28;;;;;;;1999.90;999.90;;;;;;;;;;4992845;28;20219;-72
2023/06/24 05:50:13;;;;;;;1999.90;999.90;;;;;;;;;;4992749;28;20297;-72
2023/06/24 05:52:58;;;;;;;1999.90;999.90;;;;;;;;;;4992821;28;20209;-73
2023/06/24 05:55:43;;;;;;;1999.90;999.90;;;;;;;;;;4992549;28;20207;-72
2023/06/24 05:58:29;;;;;;;1999.90;999.90;;;;;;;;;;4992611;28;20618;-72
2023/06/24 06:01:14;;;;;;;1999.90;999.90;;;;;;;;;;4991532;28;20219;-73
2023/06/24 06:03:59;;;;;;;1999.90;999.90;;;;;;;;;;4999272;28;20400;-73
2023/06/24 06:06:44;;;;;;;1999.90;999.90;;;;;;;;;;4992493;28;20199;-73
2023/06/24 06:09:29;;;;;;;1999.90;999.90;;;;;;;;;;5010288;28;20884;-74
2023/06/24 06:12:14;;;;;;;1999.90;999.90;;;;;;;;;;4999774;28;20235;-71
2023/06/24 06:15:00;;;;;;;1999.90;999.90;;;;;;;;;;4997943;28;20328;-72
2023/06/24 06:17:46;;;;;;;1999.90;999.90;;;;;;;;;;5010182;28;20277;-73
2023/06/24 06:20:31;;;;;;;1999.90;999.90;;;;;;;;;;5004977;28;20431;-71
2023/06/24 06:23:16;;;;;;;1999.90;999.90;;;;;;;;;;4996070;28;20204;-70
2023/06/24 06:26:02;;;;;;;1999.90;999.90;;;;;;;;;;4999528;28;20214;-70
2023/06/24 06:28:47;;;;;;;1999.90;999.90;;;;;;;;;;4996925;28;20409;-70
2023/06/24 06:31:34;;;;;;;1999.90;999.90;;;;;;;;;;4997233;28;20626;-71
2023/06/24 06:34:19;;;;;;;1999.90;999.90;;;;;;;;;;4999029;28;20219;-72
2023/06/24 06:37:04;;;;;;;1999.90;999.90;;;;;;;;;;4999021;28;20227;-69
2023/06/24 06:39:49;;;;;;;1999.90;999.90;;;;;;;;;;4998210;28;20216;-71
2023/06/24 06:42:34;;;;;;;1999.90;999.90;;;;;;;;;;4998603;28;21386;-69
2023/06/24 06:45:19;;;;;;;1999.90;999.90;;;;;;;;;;4996276;28;20215;-70
2023/06/24 06:48:07;;;;;;;1999.90;999.90;;;;;;;;;;4999948;28;20211;-70
2023/06/24 06:50:53;;;;;;;1999.90;999.90;;;;;;;;;;5000303;28;20234;-69
2023/06/24 06:53:37;;;;;;;1999.90;999.90;;;;;;;;;;4998934;28;20223;-70
2023/06/24 06:56:24;;;;;;;1999.90;999.90;;;;;;;;;;5005123;28;20711;-70
2023/06/24 06:59:09;;;;;;;1999.90;999.90;;;;;;;;;;5001139;28;20417;-69
2023/06/24 07:01:53;;;;;;;1999.90;999.90;;;;;;;;;;4999061;28;20362;-71
2023/06/24 07:04:40;;;;;;;1999.90;999.90;;;;;;;;;;5004491;28;20582;-71
2023/06/24 07:07:25;;;;;;;1999.90;999.90;;;;;;;;;;5006971;28;20261;-70
2023/06/24 07:10:10;;;;;;;1999.90;999.90;;;;;;;;;;5015206;28;20286;-71
2023/06/24 07:12:57;;;;;;;1999.90;999.90;;;;;;;;;;5015145;28;20210;-70
2023/06/24 07:15:42;;;;;;;1999.90;999.90;;;;;;;;;;5006669;28;20223;-69
2023/06/24 07:18:30;;;;;;;1999.90;999.90;;;;;;;;;;5002722;28;20226;-70
2023/06/24 07:21:16;;;;;;;1999.90;999.90;;;;;;;;;;4999615;28;20757;-68
2023/06/24 07:24:01;;;;;;;1999.90;999.90;;;;;;;;;;4997280;28;20262;-69
2023/06/24 07:26:46;;;;;;;1999.90;999.90;;;;;;;;;;5002039;28;20207;-70
2023/06/24 07:29:31;;;;;;;1999.90;999.90;;;;;;;;;;4999292;28;20349;-71
2023/06/24 07:32:16;;;;;;;1999.90;999.90;;;;;;;;;;5003235;28;20318;-71
2023/06/24 07:35:01;;;;;;;1999.90;999.90;;;;;;;;;;4998733;28;20277;-71
2023/06/24 07:37:47;;;;;;;1999.90;999.90;;;;;;;;;;4997307;28;20219;-71
2023/06/24 07:40:32;;;;;;;1999.90;999.90;;;;;;;;;;4994557;28;20699;-70
2023/06/24 07:43:17;;;;;;;1999.90;999.90;;;;;;;;;;4997548;28;20219;-74
2023/06/24 07:46:02;;;;;;;1999.90;999.90;;;;;;;;;;4999279;28;20215;-73
2023/06/24 07:48:48;;;;;;;1999.90;999.90;;;;;;;;;;4997570;28;20678;-73
2023/06/24 07:51:34;;;;;;;1999.90;999.90;;;;;;;;;;5002715;28;20408;-72
2023/06/24 07:54:21;;;;;;;1999.90;999.90;;;;;;;;;;5000499;28;20558;-72
2023/06/24 07:57:06;;;;;;;1999.90;999.90;;;;;;;;;;4999836;28;20341;-73
2023/06/24 07:59:51;;;;;;;1999.90;999.90;;;;;;;;;;4999209;28;20216;-73
2023/06/24 08:02:36;;;;;;;1999.90;999.90;;;;;;;;;;4998303;28;20358;-74
2023/06/24 08:05:21;;;;;;;1999.90;999.90;;;;;;;;;;5001760;28;20297;-73
2023/06/24 08:08:06;;;;;;;1999.90;999.90;;;;;;;;;;4997595;28;20259;-72
2023/06/24 08:10:52;;;;;;;1999.90;999.90;;;;;;;;;;5000728;28;20429;-73
2023/06/24 08:13:37;;;;;;;1999.90;999.90;;;;;;;;;;4999439;28;20202;-73
2023/06/24 08:16:22;;;;;;;1999.90;999.90;;;;;;;;;;4998881;28;20704;-72
2023/06/24 08:19:07;;;;;;;1999.90;999.90;;;;;;;;;;4999183;28;20218;-72
2023/06/24 08:21:52;;;;;;;1999.90;999.90;;;;;;;;;;5000936;28;20658;-73
2023/06/24 08:24:37;;;;;;;1999.90;999.90;;;;;;;;;;5000478;28;20215;-72
2023/06/24 08:27:23;;;;;;;1999.90;999.90;;;;;;;;;;5000562;28;20318;-73
2023/06/24 08:30:09;;;;;;;1999.90;999.90;;;;;;;;;;4998737;28;20215;-73
2023/06/24 08:32:54;;;;;;;1999.90;999.90;;;;;;;;;;4997936;28;20242;-73
2023/06/24 08:35:39;;;;;;;1999.90;999.90;;;;;;;;;;5000724;28;20207;-71
2023/06/24 08:38:23;;;;;;;1999.90;999.90;;;;;;;;;;4996113;28;20234;-72
2023/06/24 08:41:08;;;;;;;1999.90;999.90;;;;;;;;;;5000395;28;20231;-73
2023/06/24 08:43:55;;;;;;;1999.90;999.90;;;;;;;;;;4998041;28;20421;-73
2023/06/24 08:46:40;;;;;;;1999.90;999.90;;;;;;;;;;5002516;28;20222;-73
2023/06/24 08:49:28;;;;;;;1999.90;999.90;;;;;;;;;;5000481;28;20261;-72
2023/06/24 08:52:14;;;;;;;1999.90;999.90;;;;;;;;;;4998716;28;20246;-72
2023/06/24 08:55:00;;;;;;;1999.90;999.90;;;;;;;;;;4997650;28;20715;-72
2023/06/24 08:57:45;;;;;;;1999.90;999.90;;;;;;;;;;4998618;28;20600;-74
2023/06/24 09:00:31;;;;;;;1999.90;999.90;;;;;;;;;;5007538;28;20205;-72
2023/06/24 09:03:16;;;;;;;1999.90;999.90;;;;;;;;;;4997375;28;20479;-73
2023/06/24 09:06:01;;;;;;;1999.90;999.90;;;;;;;;;;5000891;28;20214;-72
2023/06/24 09:08:53;;;;;;;1999.90;999.90;;;;;;;;;;5001424;28;20202;-73
2023/06/24 09:11:37;;;;;;;1999.90;999.90;;;;;;;;;;5001296;28;20361;-73
2023/06/24 09:14:22;;;;;;;1999.90;999.90;;;;;;;;;;4998442;28;20601;-72
2023/06/24 09:17:09;;;;;;;1999.90;999.90;;;;;;;;;;5000013;28;20396;-73
2023/06/24 09:19:54;;;;;;;1999.90;999.90;;;;;;;;;;4995591;28;20723;-73
2023/06/24 09:22:40;;;;;;;1999.90;999.90;;;;;;;;;;4996849;28;20596;-72
2023/06/24 09:25:25;;;;;;;1999.90;999.90;;;;;;;;;;5000911;28;20211;-74
2023/06/24 09:28:14;;;;;;;1999.90;999.90;;;;;;;;;;4996848;28;20207;-75
2023/06/24 09:31:06;;;;;;;1999.90;999.90;;;;;;;;;;4995901;28;20238;-75
2023/06/24 09:33:52;;;;;;;1999.90;999.90;;;;;;;;;;4999382;28;20576;-74
2023/06/24 09:36:42;;;;;;;1999.90;999.90;;;;;;;;;;4998347;28;20215;-74
2023/06/24 09:39:29;;;;;;;1999.90;999.90;;;;;;;;;;5000308;28;20273;-73
2023/06/24 09:42:14;;;;;;;1999.90;999.90;;;;;;;;;;4997553;28;20242;-74
2023/06/24 09:44:59;;;;;;;1999.90;999.90;;;;;;;;;;4997442;28;20255;-73
2023/06/24 09:47:44;;;;;;;1999.90;999.90;;;;;;;;;;4996976;28;20200;-75
2023/06/24 09:50:31;;;;;;;1999.90;999.90;;;;;;;;;;5000702;28;20214;-73
2023/06/24 09:53:16;;;;;;;1999.90;999.90;;;;;;;;;;4992350;28;20775;-75
2023/06/24 09:56:02;;;;;;;1999.90;999.90;;;;;;;;;;4992044;28;20871;-74
2023/06/24 09:58:47;;;;;;;1999.90;999.90;;;;;;;;;;5000186;28;20839;-75
2023/06/24 10:01:33;;;;;;;1999.90;999.90;;;;;;;;;;5000786;28;20233;-75
2023/06/24 10:04:18;;;;;;;1999.90;999.90;;;;;;;;;;4994798;28;20207;-76
2023/06/24 10:07:05;;;;;;;1999.90;999.90;;;;;;;;;;4995550;28;20319;-74
2023/06/24 10:09:50;;;;;;;1999.90;999.90;;;;;;;;;;4997720;28;20581;-74
2023/06/24 10:12:35;;;;;;;1999.90;999.90;;;;;;;;;;4994218;28;20366;-74
2023/06/24 10:15:20;;;;;;;1999.90;999.90;;;;;;;;;;4998130;28;20293;-74
2023/06/24 10:18:20;;;;;;;1999.90;999.90;;;;;;;;;;5002583;28;20223;-74
2023/06/24 10:21:06;;;;;;;1999.90;999.90;;;;;;;;;;4995051;28;20292;-73
2023/06/24 10:23:54;;;;;;;1999.90;999.90;;;;;;;;;;4998711;28;20603;-76
2023/06/24 10:26:40;;;;;;;1999.90;999.90;;;;;;;;;;5000012;28;20422;-76
2023/06/24 10:29:31;;;;;;;1999.90;999.90;;;;;;;;;;5000466;28;20424;-74
2023/06/24 10:32:16;;;;;;;1999.90;999.90;;;;;;;;;;5002504;28;20223;-74
2023/06/24 10:35:02;;;;;;;1999.90;999.90;;;;;;;;;;5005440;28;20262;-74
2023/06/24 10:37:54;;;;;;;1999.90;999.90;;;;;;;;;;5004115;28;20306;-75
2023/06/24 10:40:43;;;;;;;1999.90;999.90;;;;;;;;;;4997283;28;20206;-73
2023/06/24 10:43:29;;;;;;;1999.90;999.90;;;;;;;;;;5003237;28;20219;-75
2023/06/24 10:46:15;;;;;;;1999.90;999.90;;;;;;;;;;5001994;28;20230;-74
2023/06/24 10:49:01;;;;;;;1999.90;999.90;;;;;;;;;;5000096;28;20759;-74
2023/06/24 10:51:46;;;;;;;1999.90;999.90;;;;;;;;;;4995144;28;20230;-74
2023/06/24 10:54:31;;;;;;;1999.90;999.90;;;;;;;;;;4998864;28;20211;-73
2023/06/24 10:57:21;;;;;;;1999.90;999.90;;;;;;;;;;5001025;28;20243;-74
2023/06/24 11:00:07;;;;;;;1999.90;999.90;;;;;;;;;;5005451;28;20295;-74
2023/06/24 11:02:52;;;;;;;1999.90;999.90;;;;;;;;;;5000593;28;20309;-75
2023/06/24 11:05:39;;;;;;;1999.90;999.90;;;;;;;;;;5003516;28;20223;-75
2023/06/24 11:08:24;;;;;;;1999.90;999.90;;;;;;;;;;5004352;28;20202;-74
2023/06/24 11:11:09;;;;;;;1999.90;999.90;;;;;;;;;;5003793;28;20304;-73
2023/06/24 11:13:55;;;;;;;1999.90;999.90;;;;;;;;;;5001228;28;20215;-73
2023/06/24 11:16:40;;;;;;;1999.90;999.90;;;;;;;;;;5002381;28;20241;-74
2023/06/24 11:19:25;;;;;;;1999.90;999.90;;;;;;;;;;5004026;28;20998;-74
2023/06/24 11:22:10;;;;;;;1999.90;999.90;;;;;;;;;;4995183;28;20436;-76
2023/06/24 11:24:55;;;;;;;1999.90;999.90;;;;;;;;;;4995203;28;20327;-74
2023/06/24 11:27:40;;;;;;;1999.90;999.90;;;;;;;;;;5004142;28;20215;-74
2023/06/24 11:30:27;;;;;;;1999.90;999.90;;;;;;;;;;5000139;28;20677;-74
2023/06/24 11:33:11;;;;;;;1999.90;999.90;;;;;;;;;;5000667;28;20222;-74
2023/06/24 11:35:56;;;;;;;1999.90;999.90;;;;;;;;;;5002654;28;20215;-75
2023/06/24 11:38:41;;;;;;;1999.90;999.90;;;;;;;;;;4996160;28;20270;-74
2023/06/24 11:41:27;;;;;;;1999.90;999.90;;;;;;;;;;5000003;28;20510;-74
2023/06/24 11:44:12;;;;;;;1999.90;999.90;;;;;;;;;;5000512;28;20294;-75
2023/06/24 11:47:05;;;;;;;1999.90;999.90;;;;;;;;;;5003216;28;20255;-73
2023/06/24 11:49:50;;;;;;;1999.90;999.90;;;;;;;;;;4999959;28;20615;-72
2023/06/24 11:52:39;;;;;;;1999.90;999.90;;;;;;;;;;5002073;28;20373;-74
2023/06/24 11:55:25;;;;;;;1999.90;999.90;;;;;;;;;;5000928;28;20347;-73
2023/06/24 11:58:10;;;;;;;1999.90;999.90;;;;;;;;;;4994404;28;20719;-74
2023/06/24 12:00:56;;;;;;;1999.90;999.90;;;;;;;;;;4998103;28;20237;-74
2023/06/24 12:03:43;;;;;;;1999.90;999.90;;;;;;;;;;4994597;28;20274;-74
2023/06/24 12:06:28;;;;;;;1999.90;999.90;;;;;;;;;;5002011;28;20219;-74
2023/06/24 12:09:13;;;;;;;1999.90;999.90;;;;;;;;;;4998806;28;20816;-74
2023/06/24 12:11:58;;;;;;;1999.90;999.90;;;;;;;;;;5003852;28;20242;-74
2023/06/24 12:14:43;;;;;;;1999.90;999.90;;;;;;;;;;5006707;28;20226;-74
2023/06/24 12:17:28;;;;;;;1999.90;999.90;;;;;;;;;;5004313;28;20206;-74
2023/06/24 12:20:15;;;;;;;1999.90;999.90;;;;;;;;;;5001420;28;20199;-73
2023/06/24 12:23:00;;;;;;;1999.90;999.90;;;;;;;;;;5000782;28;20342;-74
2023/06/24 12:25:44;;;;;;;1999.90;999.90;;;;;;;;;;5001858;28;20265;-75
2023/06/24 12:28:30;;;;;;;1999.90;999.90;;;;;;;;;;5000786;28;20286;-74
2023/06/24 12:31:14;;;;;;;1999.90;999.90;;;;;;;;;;5001684;28;20234;-74
2023/06/24 12:33:59;;;;;;;1999.90;999.90;;;;;;;;;;5007180;28;20975;-72
2023/06/24 12:36:45;;;;;;;1999.90;999.90;;;;;;;;;;5002054;28;20328;-74
2023/06/24 12:39:30;;;;;;;1999.90;999.90;;;;;;;;;;5002718;28;20246;-73
2023/06/24 12:42:15;;;;;;;1999.90;999.90;;;;;;;;;;5002717;28;20351;-73
2023/06/24 12:45:00;;;;;;;1999.90;999.90;;;;;;;;;;5000930;28;20219;-75
2023/06/24 12:47:45;;;;;;;1999.90;999.90;;;;;;;;;;4996723;28;20211;-74
2023/06/24 12:50:31;;;;;;;1999.90;999.90;;;;;;;;;;5000566;28;20605;-74
2023/06/24 12:53:17;;;;;;;1999.90;999.90;;;;;;;;;;4993481;28;20747;-75
2023/06/24 12:56:03;;;;;;;1999.90;999.90;;;;;;;;;;4999997;28;20219;-74
2023/06/24 12:58:48;;;;;;;1999.90;999.90;;;;;;;;;;4996900;28;20220;-74
2023/06/24 13:01:33;;;;;;;1999.90;999.90;;;;;;;;;;4997906;28;20723;-72
2023/06/24 13:04:19;;;;;;;1999.90;999.90;;;;;;;;;;4996531;28;20124;-75
2023/06/24 13:07:05;;;;;;;1999.90;999.90;;;;;;;;;;4997763;28;20262;-77
2023/06/24 13:09:51;;;;;;;1999.90;999.90;;;;;;;;;;4995817;28;20202;-75
2023/06/24 13:12:36;;;;;;;1999.90;999.90;;;;;;;;;;5004535;28;20273;-76
2023/06/24 13:15:22;;;;;;;1999.90;999.90;;;;;;;;;;5000113;28;20330;-75
2023/06/24 13:18:06;;;;;;;1999.90;999.90;;;;;;;;;;4993407;28;20207;-75
2023/06/24 13:20:51;;;;;;;1999.90;999.90;;;;;;;;;;4993800;28;20294;-76
2023/06/24 13:23:38;;;;;;;1999.90;999.90;;;;;;;;;;4992697;28;20212;-76
2023/06/24 13:26:24;;;;;;;1999.90;999.90;;;;;;;;;;4998542;28;20926;-75
2023/06/24 13:29:10;;;;;;;1999.90;999.90;;;;;;;;;;4999574;28;20301;-74
2023/06/24 13:31:54;;;;;;;1999.90;999.90;;;;;;;;;;5001424;28;20229;-75
2023/06/24 13:34:39;;;;;;;1999.90;999.90;;;;;;;;;;4998465;28;20288;-74
2023/06/24 13:37:25;;;;;;;1999.90;999.90;;;;;;;;;;4997061;28;20231;-73
2023/06/24 13:40:10;;;;;;;1999.90;999.90;;;;;;;;;;4996289;28;20369;-73
2023/06/24 13:42:57;;;;;;;1999.90;999.90;;;;;;;;;;5001800;28;20369;-72
2023/06/24 13:45:42;;;;;;;1999.90;999.90;;;;;;;;;;4992477;28;20331;-73
2023/06/24 13:48:27;;;;;;;1999.90;999.90;;;;;;;;;;4998069;28;20207;-73
2023/06/24 13:51:12;;;;;;;1999.90;999.90;;;;;;;;;;4993513;28;20625;-72
2023/06/24 13:53:57;;;;;;;1999.90;999.90;;;;;;;;;;4997870;28;20285;-73
2023/06/24 13:56:42;;;;;;;1999.90;999.90;;;;;;;;;;5007588;28;20215;-73
2023/06/24 13:59:28;;;;;;;1999.90;999.90;;;;;;;;;;4993255;28;20222;-73
2023/06/24 14:02:13;;;;;;;1999.90;999.90;;;;;;;;;;5001782;28;20235;-73
2023/06/24 14:04:58;;;;;;;1999.90;999.90;;;;;;;;;;5003373;28;20214;-73
2023/06/24 14:07:43;;;;;;;1999.90;999.90;;;;;;;;;;4992374;28;20598;-73
2023/06/24 14:10:28;;;;;;;1999.90;999.90;;;;;;;;;;4992347;28;20747;-73
2023/06/24 14:13:12;;;;;;;1999.90;999.90;;;;;;;;;;4992542;28;20207;-73
2023/06/24 14:15:59;;;;;;;1999.90;999.90;;;;;;;;;;4992364;28;20207;-73
2023/06/24 14:18:44;;;;;;;1999.90;999.90;;;;;;;;;;4990878;28;20574;-73
2023/06/24 14:21:31;;;;;;;1999.90;999.90;;;;;;;;;;4992100;28;20274;-73
2023/06/24 14:24:16;;;;;;;1999.90;999.90;;;;;;;;;;4992127;28;20207;-73
2023/06/24 14:27:00;;;;;;;1999.90;999.90;;;;;;;;;;4992210;28;20286;-73
2023/06/24 14:29:45;;;;;;;1999.90;999.90;;;;;;;;;;4991988;28;20685;-73
2023/06/24 14:32:32;;;;;;;1999.90;999.90;;;;;;;;;;4992065;28;20218;-73
2023/06/24 14:35:17;;;;;;;1999.90;999.90;;;;;;;;;;4992143;28;20567;-73
2023/06/24 14:38:02;;;;;;;1999.90;999.90;;;;;;;;;;4992203;28;20219;-74
2023/06/24 14:40:47;;;;;;;1999.90;999.90;;;;;;;;;;4991831;28;20274;-73
2023/06/24 14:43:32;;;;;;;1999.90;999.90;;;;;;;;;;4991991;28;20211;-73
2023/06/24 14:46:17;;;;;;;1999.90;999.90;;;;;;;;;;4992458;28;20206;-73
2023/06/24 14:49:03;;;;;;;1999.90;999.90;;;;;;;;;;4991412;28;20483;-73
2023/06/24 14:51:48;;;;;;;1999.90;999.90;;;;;;;;;;4991751;28;20597;-73
2023/06/24 14:54:33;;;;;;;1999.90;999.90;;;;;;;;;;4992106;28;20211;-73
2023/06/24 14:57:17;;;;;;;1999.90;999.90;;;;;;;;;;4992168;28;20206;-74
2023/06/24 15:00:03;;;;;;;1999.90;999.90;;;;;;;;;;4991629;28;20267;-73
2023/06/24 15:02:48;;;;;;;1999.90;999.90;;;;;;;;;;4991915;28;20226;-73
2023/06/24 15:05:34;;;;;;;1999.90;999.90;;;;;;;;;;4992096;28;20211;-75
2023/06/24 15:08:19;;;;;;;1999.90;999.90;;;;;;;;;;4991916;28;20623;-73
2023/06/24 15:11:04;;;;;;;1999.90;999.90;;;;;;;;;;4990438;28;20409;-73
2023/06/24 15:13:49;;;;;;;1999.90;999.90;;;;;;;;;;4994975;28;20215;-73
2023/06/24 15:16:34;;;;;;;1999.90;999.90;;;;;;;;;;4995416;28;20230;-73
2023/06/24 15:19:19;;;;;;;1999.90;999.90;;;;;;;;;;4995545;28;20227;-73
2023/06/24 15:22:05;;;;;;;1999.90;999.90;;;;;;;;;;4995354;28;20827;-73
2023/06/24 15:24:50;;;;;;;1999.90;999.90;;;;;;;;;;4994906;28;20210;-73